createdAt,value
2019-05-17T00:00:37.540Z,18.99
2019-05-17T00:01:37.579Z,18.91
2019-05-17T00:02:37.462Z,18.94
2019-05-17T00:03:36.548Z,18.91
2019-05-17T00:04:36.396Z,18.94
2019-05-17T00:05:37.471Z,18.99
2019-05-17T00:06:36.927Z,18.97
2019-05-17T00:07:36.925Z,18.87
2019-05-17T00:08:38.067Z,18.95
2019-05-17T00:09:37.442Z,18.94
2019-05-17T00:10:37.592Z,18.91
2019-05-17T00:11:36.740Z,18.97
2019-05-17T00:12:36.798Z,18.98
2019-05-17T00:13:38.489Z,18.90
2019-05-17T00:14:36.578Z,18.94
2019-05-17T00:15:36.682Z,18.91
2019-05-17T00:16:37.491Z,18.95
2019-05-17T00:17:37.613Z,18.94
2019-05-17T00:18:37.064Z,18.94
2019-05-17T00:19:36.876Z,18.94
2019-05-17T00:20:37.551Z,18.87
2019-05-17T00:21:36.985Z,18.91
2019-05-17T00:22:36.546Z,18.94
2019-05-17T00:23:37.494Z,18.87
2019-05-17T00:24:36.967Z,18.87
2019-05-17T00:25:36.850Z,18.82
2019-05-17T00:26:36.317Z,18.91
2019-05-17T00:27:36.707Z,18.92
2019-05-17T00:28:37.543Z,18.83
2019-05-17T00:29:37.182Z,18.83
2019-05-17T00:30:37.245Z,18.82
2019-05-17T00:31:36.977Z,18.83
2019-05-17T00:32:36.961Z,18.91
2019-05-17T00:33:36.676Z,18.97
2019-05-17T00:34:37.771Z,18.87
2019-05-17T00:35:37.641Z,18.84
2019-05-17T00:36:37.518Z,18.90
2019-05-17T00:37:37.307Z,18.87
2019-05-17T00:38:47.530Z,18.84
2019-05-17T00:39:36.641Z,18.94
2019-05-17T00:40:36.550Z,18.84
2019-05-17T00:41:37.495Z,18.90
2019-05-17T00:42:37.158Z,18.87
2019-05-17T00:43:36.910Z,18.97
2019-05-17T00:44:36.600Z,18.90
2019-05-17T00:45:37.699Z,18.98
2019-05-17T00:46:37.249Z,18.87
2019-05-17T00:47:37.439Z,18.86
2019-05-17T00:48:37.194Z,18.91
2019-05-17T00:49:37.134Z,18.91
2019-05-17T00:50:37.786Z,18.83
2019-05-17T00:51:36.926Z,18.90
2019-05-17T00:52:36.791Z,18.90
2019-05-17T00:53:36.280Z,18.86
2019-05-17T00:54:36.201Z,18.94
2019-05-17T00:55:36.306Z,18.87
2019-05-17T00:56:37.253Z,18.90
2019-05-17T00:57:36.892Z,18.92
2019-05-17T00:58:37.061Z,18.84
2019-05-17T00:59:36.922Z,18.82
2019-05-17T01:00:37.784Z,18.86
2019-05-17T01:01:36.472Z,18.83
2019-05-17T01:02:36.313Z,18.80
2019-05-17T01:03:36.293Z,18.87
2019-05-17T01:04:36.854Z,18.80
2019-05-17T01:05:36.985Z,18.83
2019-05-17T01:06:37.475Z,18.86
2019-05-17T01:07:37.653Z,18.83
2019-05-17T01:08:37.243Z,18.86
2019-05-17T01:09:36.650Z,18.83
2019-05-17T01:10:36.855Z,18.82
2019-05-17T01:11:36.564Z,18.86
2019-05-17T01:12:36.564Z,18.86
2019-05-17T01:13:37.393Z,18.82
2019-05-17T01:14:37.306Z,18.83
2019-05-17T01:15:36.837Z,18.87
2019-05-17T01:16:36.781Z,18.84
2019-05-17T01:17:36.579Z,18.86
2019-05-17T01:18:36.174Z,18.87
2019-05-17T01:19:36.560Z,18.90
2019-05-17T01:20:36.978Z,18.83
2019-05-17T01:21:36.744Z,18.84
2019-05-17T01:22:36.688Z,18.83
2019-05-17T01:23:36.219Z,18.79
2019-05-17T01:24:36.880Z,18.83
2019-05-17T01:25:36.730Z,18.82
2019-05-17T01:26:37.231Z,18.79
2019-05-17T01:27:35.303Z,18.84
2019-05-17T01:28:36.366Z,18.79
2019-05-17T01:29:36.337Z,18.79
2019-05-17T01:30:37.439Z,18.77
2019-05-17T01:31:37.368Z,18.84
2019-05-17T01:32:37.476Z,18.82
2019-05-17T01:33:36.760Z,18.87
2019-05-17T01:34:37.408Z,18.80
2019-05-17T01:35:37.501Z,18.79
2019-05-17T01:36:37.004Z,18.80
2019-05-17T01:37:36.992Z,18.84
2019-05-17T01:38:37.426Z,18.80
2019-05-17T01:39:37.253Z,18.83
2019-05-17T01:40:37.249Z,18.83
2019-05-17T01:41:37.110Z,18.79
2019-05-17T01:42:37.298Z,18.83
2019-05-17T01:43:36.756Z,18.84
2019-05-17T01:44:36.755Z,18.83
2019-05-17T01:45:36.508Z,18.84
2019-05-17T01:46:37.034Z,18.84
2019-05-17T01:47:36.853Z,18.84
2019-05-17T01:48:36.560Z,18.73
2019-05-17T01:49:36.332Z,18.68
2019-05-17T01:50:37.330Z,18.84
2019-05-17T01:51:37.015Z,18.80
2019-05-17T01:52:36.979Z,18.83
2019-05-17T01:53:36.477Z,18.82
2019-05-17T01:54:36.259Z,18.87
2019-05-17T01:55:37.354Z,18.77
2019-05-17T01:56:36.922Z,18.76
2019-05-17T01:57:37.116Z,18.82
2019-05-17T01:58:36.551Z,18.80
2019-05-17T01:59:37.136Z,18.82
2019-05-17T02:00:37.303Z,18.79
2019-05-17T02:01:37.178Z,18.68
2019-05-17T02:02:36.604Z,18.82
2019-05-17T02:03:37.298Z,18.72
2019-05-17T02:04:37.234Z,18.82
2019-05-17T02:05:37.334Z,18.84
2019-05-17T02:06:36.585Z,18.83
2019-05-17T02:07:37.161Z,18.83
2019-05-17T02:08:37.136Z,18.76
2019-05-17T02:09:41.168Z,18.80
2019-05-17T02:10:37.290Z,18.84
2019-05-17T02:11:37.066Z,18.82
2019-05-17T02:12:37.140Z,18.82
2019-05-17T02:13:37.359Z,18.79
2019-05-17T02:14:37.308Z,18.73
2019-05-17T02:15:37.460Z,18.68
2019-05-17T02:16:37.404Z,18.77
2019-05-17T02:17:37.180Z,18.70
2019-05-17T02:18:37.045Z,18.68
2019-05-17T02:19:37.024Z,18.76
2019-05-17T02:20:36.976Z,18.68
2019-05-17T02:21:36.724Z,18.79
2019-05-17T02:22:36.811Z,18.68
2019-05-17T02:23:36.950Z,18.72
2019-05-17T02:24:36.963Z,18.73
2019-05-17T02:25:36.959Z,18.79
2019-05-17T02:26:37.290Z,18.68
2019-05-17T02:27:40.895Z,18.70
2019-05-17T02:28:34.877Z,18.70
2019-05-17T02:29:34.860Z,18.74
2019-05-17T02:30:34.868Z,18.77
2019-05-17T02:31:34.845Z,18.73
2019-05-17T02:32:34.833Z,18.72
2019-05-17T02:33:34.829Z,18.70
2019-05-17T02:34:34.820Z,18.65
2019-05-17T02:35:34.823Z,18.80
2019-05-17T02:36:34.817Z,18.72
2019-05-17T02:37:34.814Z,18.67
2019-05-17T02:38:34.793Z,18.72
2019-05-17T02:39:51.971Z,18.72
2019-05-17T02:40:34.806Z,18.72
2019-05-17T02:41:34.775Z,18.68
2019-05-17T02:42:34.770Z,18.62
2019-05-17T02:43:34.760Z,18.67
2019-05-17T02:44:34.765Z,18.68
2019-05-17T02:45:34.751Z,18.67
2019-05-17T02:46:34.733Z,18.73
2019-05-17T02:47:34.747Z,18.64
2019-05-17T02:48:34.732Z,18.72
2019-05-17T02:49:34.728Z,18.72
2019-05-17T02:50:34.710Z,18.67
2019-05-17T02:51:34.708Z,18.70
2019-05-17T02:52:34.690Z,18.70
2019-05-17T02:53:34.683Z,18.76
2019-05-17T02:54:34.674Z,18.68
2019-05-17T02:55:34.678Z,18.68
2019-05-17T02:56:34.673Z,18.68
2019-05-17T02:57:34.948Z,18.68
2019-05-17T02:58:34.653Z,18.72
2019-05-17T02:59:34.658Z,18.72
2019-05-17T03:00:34.641Z,18.65
2019-05-17T03:01:34.630Z,18.70
2019-05-17T03:02:34.621Z,18.67
2019-05-17T03:03:34.611Z,18.72
2019-05-17T03:04:34.601Z,18.74
2019-05-17T03:05:34.601Z,18.70
2019-05-17T03:06:34.594Z,18.61
2019-05-17T03:07:34.597Z,18.72
2019-05-17T03:08:34.618Z,18.67
2019-05-17T03:09:34.573Z,18.73
2019-05-17T03:10:34.564Z,18.64
2019-05-17T03:11:34.556Z,18.73
2019-05-17T03:12:34.546Z,18.77
2019-05-17T03:13:34.546Z,18.73
2019-05-17T03:14:34.537Z,18.74
2019-05-17T03:15:34.525Z,18.72
2019-05-17T03:16:34.523Z,18.68
2019-05-17T03:17:34.509Z,18.67
2019-05-17T03:18:34.503Z,18.73
2019-05-17T03:19:34.500Z,18.79
2019-05-17T03:20:34.493Z,18.73
2019-05-17T03:21:34.488Z,18.74
2019-05-17T03:22:34.480Z,18.65
2019-05-17T03:23:34.473Z,18.76
2019-05-17T03:24:34.461Z,18.64
2019-05-17T03:25:34.451Z,18.65
2019-05-17T03:26:34.448Z,18.67
2019-05-17T03:27:34.451Z,18.70
2019-05-17T03:28:34.459Z,18.64
2019-05-17T03:29:34.419Z,18.64
2019-05-17T03:30:37.097Z,18.72
2019-05-17T03:31:42.339Z,18.74
2019-05-17T03:32:36.183Z,18.73
2019-05-17T03:33:36.255Z,18.72
2019-05-17T03:34:36.853Z,18.73
2019-05-17T03:35:37.950Z,18.64
2019-05-17T03:36:36.280Z,18.68
2019-05-17T03:37:37.928Z,18.72
2019-05-17T03:38:34.354Z,18.67
2019-05-17T03:39:34.367Z,18.73
2019-05-17T03:41:06.163Z,18.64
2019-05-17T03:41:34.367Z,18.72
2019-05-17T03:42:34.334Z,18.74
2019-05-17T03:43:35.152Z,18.73
2019-05-17T03:44:34.315Z,18.76
2019-05-17T03:45:34.436Z,18.72
2019-05-17T03:46:34.314Z,18.83
2019-05-17T03:47:34.303Z,18.91
2019-05-17T03:48:34.282Z,18.95
2019-05-17T03:49:34.288Z,18.92
2019-05-17T03:50:34.288Z,18.92
2019-05-17T03:51:34.265Z,18.97
2019-05-17T03:52:34.257Z,19.01
2019-05-17T03:53:34.255Z,18.97
2019-05-17T03:54:34.243Z,19.02
2019-05-17T03:55:34.231Z,18.99
2019-05-17T03:56:34.217Z,19.01
2019-05-17T03:57:34.214Z,19.05
2019-05-17T03:58:34.216Z,19.11
2019-05-17T03:59:34.203Z,18.99
2019-05-17T04:00:35.469Z,19.02
2019-05-17T04:01:34.205Z,19.02
2019-05-17T04:02:34.188Z,19.10
2019-05-17T04:03:35.643Z,19.06
2019-05-17T04:04:34.165Z,18.99
2019-05-17T04:05:34.186Z,19.11
2019-05-17T04:06:34.161Z,19.06
2019-05-17T04:07:34.148Z,19.11
2019-05-17T04:08:34.138Z,19.08
2019-05-17T04:09:37.629Z,19.18
2019-05-17T04:10:34.115Z,19.06
2019-05-17T04:11:36.500Z,19.23
2019-05-17T04:12:34.109Z,19.15
2019-05-17T04:13:34.119Z,19.11
2019-05-17T04:14:34.106Z,19.13
2019-05-17T04:15:34.080Z,19.05
2019-05-17T04:16:34.207Z,19.06
2019-05-17T04:17:34.083Z,18.99
2019-05-17T04:18:34.068Z,19.13
2019-05-17T04:19:34.064Z,19.02
2019-05-17T04:20:34.055Z,18.97
2019-05-17T04:21:34.434Z,18.98
2019-05-17T04:22:34.034Z,18.98
2019-05-17T04:23:34.309Z,19.14
2019-05-17T04:24:34.017Z,19.10
2019-05-17T04:25:34.083Z,19.10
2019-05-17T04:26:34.011Z,19.18
2019-05-17T04:27:33.991Z,19.10
2019-05-17T04:28:33.998Z,19.18
2019-05-17T04:29:33.980Z,19.17
2019-05-17T04:30:33.977Z,19.11
2019-05-17T04:31:35.151Z,19.17
2019-05-17T04:32:33.986Z,19.18
2019-05-17T04:33:34.014Z,19.20
2019-05-17T04:34:34.131Z,19.08
2019-05-17T04:35:33.939Z,19.21
2019-05-17T04:36:33.936Z,19.14
2019-05-17T04:37:38.123Z,19.15
2019-05-17T04:38:33.920Z,19.14
2019-05-17T04:39:33.929Z,19.11
2019-05-17T04:40:34.367Z,19.14
2019-05-17T04:41:45.102Z,19.10
2019-05-17T04:42:33.921Z,19.18
2019-05-17T04:43:33.897Z,19.08
2019-05-17T04:44:33.876Z,19.10
2019-05-17T04:45:33.975Z,19.11
2019-05-17T04:46:33.868Z,19.14
2019-05-17T04:47:33.844Z,19.23
2019-05-17T04:48:33.838Z,19.20
2019-05-17T04:49:33.841Z,19.20
2019-05-17T04:50:33.864Z,19.18
2019-05-17T04:51:33.848Z,19.17
2019-05-17T04:52:33.885Z,19.28
2019-05-17T04:53:33.806Z,19.23
2019-05-17T04:54:33.807Z,19.24
2019-05-17T04:55:34.485Z,19.17
2019-05-17T04:56:33.843Z,19.18
2019-05-17T04:57:33.784Z,19.24
2019-05-17T04:58:33.929Z,19.18
2019-05-17T04:59:34.237Z,19.21
2019-05-17T05:00:34.368Z,19.18
2019-05-17T05:01:33.745Z,19.17
2019-05-17T05:02:33.738Z,19.23
2019-05-17T05:03:33.747Z,19.18
2019-05-17T05:04:37.790Z,19.23
2019-05-17T05:05:33.746Z,19.20
2019-05-17T05:06:33.782Z,19.17
2019-05-17T05:07:33.812Z,19.14
2019-05-17T05:08:33.707Z,19.14
2019-05-17T05:09:33.701Z,19.15
2019-05-17T05:10:38.095Z,19.21
2019-05-17T05:11:33.685Z,19.13
2019-05-17T05:12:33.875Z,19.10
2019-05-17T05:13:33.776Z,19.08
2019-05-17T05:14:33.681Z,19.13
2019-05-17T05:15:33.659Z,19.17
2019-05-17T05:16:33.646Z,19.18
2019-05-17T05:17:33.639Z,19.20
2019-05-17T05:18:33.633Z,19.29
2019-05-17T05:19:33.633Z,19.23
2019-05-17T05:20:33.616Z,19.21
2019-05-17T05:21:33.614Z,19.23
2019-05-17T05:22:33.608Z,19.24
2019-05-17T05:23:33.598Z,19.39
2019-05-17T05:24:33.588Z,19.38
2019-05-17T05:25:33.584Z,19.36
2019-05-17T05:26:33.571Z,19.42
2019-05-17T05:27:33.569Z,19.38
2019-05-17T05:28:33.564Z,19.46
2019-05-17T05:29:33.559Z,19.43
2019-05-17T05:30:33.554Z,19.40
2019-05-17T05:31:33.548Z,19.40
2019-05-17T05:32:33.540Z,19.39
2019-05-17T05:33:33.530Z,19.35
2019-05-17T05:34:33.518Z,19.46
2019-05-17T05:35:33.528Z,19.40
2019-05-17T05:36:33.510Z,19.39
2019-05-17T05:37:33.503Z,19.39
2019-05-17T05:38:33.498Z,19.42
2019-05-17T05:39:33.492Z,19.43
2019-05-17T05:40:33.482Z,19.43
2019-05-17T05:41:33.482Z,19.38
2019-05-17T05:42:33.484Z,19.47
2019-05-17T05:43:33.460Z,19.40
2019-05-17T05:44:33.457Z,19.47
2019-05-17T05:45:33.453Z,19.43
2019-05-17T05:46:33.447Z,19.39
2019-05-17T05:47:33.450Z,19.43
2019-05-17T05:48:33.433Z,19.47
2019-05-17T05:49:33.456Z,19.36
2019-05-17T05:50:33.423Z,19.36
2019-05-17T05:51:33.426Z,19.43
2019-05-17T05:52:33.409Z,19.38
2019-05-17T05:53:33.403Z,19.32
2019-05-17T05:54:33.394Z,19.35
2019-05-17T05:55:33.426Z,19.31
2019-05-17T05:56:33.383Z,19.29
2019-05-17T05:57:33.368Z,19.25
2019-05-17T05:58:33.366Z,19.23
2019-05-17T05:59:35.371Z,19.21
2019-05-17T06:00:33.359Z,19.38
2019-05-17T06:01:33.346Z,19.24
2019-05-17T06:02:33.339Z,19.24
2019-05-17T06:03:33.339Z,19.38
2019-05-17T06:04:33.326Z,19.36
2019-05-17T06:05:33.318Z,19.35
2019-05-17T06:06:33.307Z,19.43
2019-05-17T06:07:33.316Z,19.42
2019-05-17T06:08:33.311Z,19.38
2019-05-17T06:09:33.291Z,19.46
2019-05-17T06:10:33.295Z,19.43
2019-05-17T06:11:33.288Z,19.42
2019-05-17T06:12:33.284Z,19.43
2019-05-17T06:13:33.269Z,19.40
2019-05-17T06:14:33.267Z,19.33
2019-05-17T06:15:33.274Z,19.38
2019-05-17T06:16:33.248Z,19.40
2019-05-17T06:17:33.253Z,19.40
2019-05-17T06:18:33.248Z,19.40
2019-05-17T06:19:33.235Z,19.24
2019-05-17T06:20:33.220Z,19.53
2019-05-17T06:21:33.216Z,19.43
2019-05-17T06:22:33.227Z,19.40
2019-05-17T06:23:33.197Z,19.47
2019-05-17T06:24:33.188Z,19.43
2019-05-17T06:25:34.041Z,19.35
2019-05-17T06:26:33.183Z,19.43
2019-05-17T06:27:33.168Z,19.39
2019-05-17T06:28:33.165Z,19.35
2019-05-17T06:29:33.161Z,19.36
2019-05-17T06:30:33.149Z,19.40
2019-05-17T06:31:33.434Z,19.40
2019-05-17T06:32:33.157Z,19.43
2019-05-17T06:33:34.806Z,19.40
2019-05-17T06:34:33.128Z,19.47
2019-05-17T06:35:33.117Z,19.40
2019-05-17T06:36:33.108Z,19.42
2019-05-17T06:37:33.107Z,19.42
2019-05-17T06:38:33.145Z,19.43
2019-05-17T06:39:33.094Z,19.43
2019-05-17T06:40:33.088Z,19.43
2019-05-17T06:41:33.080Z,19.51
2019-05-17T06:42:40.439Z,19.55
2019-05-17T06:43:33.080Z,19.55
2019-05-17T06:44:33.057Z,19.57
2019-05-17T06:45:33.057Z,19.58
2019-05-17T06:46:33.050Z,19.55
2019-05-17T06:47:33.037Z,19.53
2019-05-17T06:48:33.027Z,19.50
2019-05-17T06:49:33.019Z,19.54
2019-05-17T06:50:33.010Z,19.54
2019-05-17T06:51:33.010Z,19.48
2019-05-17T06:52:33.004Z,19.55
2019-05-17T06:53:32.997Z,19.53
2019-05-17T06:54:33.249Z,19.55
2019-05-17T06:55:32.978Z,19.40
2019-05-17T06:56:32.981Z,19.63
2019-05-17T06:57:32.977Z,19.58
2019-05-17T06:58:32.966Z,19.51
2019-05-17T06:59:33.557Z,19.47
2019-05-17T07:00:32.947Z,19.53
2019-05-17T07:01:32.942Z,19.54
2019-05-17T07:02:35.936Z,19.58
2019-05-17T07:03:32.933Z,19.57
2019-05-17T07:04:32.925Z,19.60
2019-05-17T07:05:32.921Z,19.54
2019-05-17T07:06:32.914Z,19.60
2019-05-17T07:07:32.899Z,19.63
2019-05-17T07:08:32.895Z,19.61
2019-05-17T07:09:35.855Z,19.69
2019-05-17T07:10:32.881Z,19.58
2019-05-17T07:11:32.881Z,19.70
2019-05-17T07:12:32.880Z,19.68
2019-05-17T07:13:32.863Z,19.68
2019-05-17T07:14:32.858Z,19.70
2019-05-17T07:15:43.678Z,19.66
2019-05-17T07:16:32.859Z,19.66
2019-05-17T07:17:32.840Z,19.72
2019-05-17T07:18:32.835Z,19.68
2019-05-17T07:19:32.824Z,19.58
2019-05-17T07:20:32.818Z,19.65
2019-05-17T07:21:32.812Z,19.58
2019-05-17T07:22:32.822Z,19.70
2019-05-17T07:23:32.806Z,19.60
2019-05-17T07:24:32.795Z,19.65
2019-05-17T07:25:32.799Z,19.61
2019-05-17T07:26:32.788Z,19.61
2019-05-17T07:27:41.549Z,19.60
2019-05-17T07:28:32.831Z,19.58
2019-05-17T07:29:32.773Z,19.61
2019-05-17T07:30:32.786Z,19.60
2019-05-17T07:31:32.755Z,19.55
2019-05-17T07:32:32.747Z,19.58
2019-05-17T07:33:32.742Z,19.54
2019-05-17T07:34:32.741Z,19.51
2019-05-17T07:35:32.732Z,19.54
2019-05-17T07:36:32.725Z,19.55
2019-05-17T07:37:32.718Z,19.55
2019-05-17T07:38:32.713Z,19.54
2019-05-17T07:39:32.705Z,19.58
2019-05-17T07:40:32.696Z,19.57
2019-05-17T07:41:32.686Z,19.63
2019-05-17T07:42:32.673Z,19.61
2019-05-17T07:43:32.698Z,19.61
2019-05-17T07:44:32.681Z,19.58
2019-05-17T07:45:32.658Z,19.63
2019-05-17T07:46:32.673Z,19.75
2019-05-17T07:47:32.655Z,19.61
2019-05-17T07:48:32.640Z,19.69
2019-05-17T07:49:32.633Z,19.61
2019-05-17T07:50:32.627Z,19.73
2019-05-17T07:51:32.616Z,19.66
2019-05-17T07:52:32.609Z,19.68
2019-05-17T07:53:32.600Z,19.78
2019-05-17T07:54:32.599Z,19.76
2019-05-17T07:55:32.593Z,19.78
2019-05-17T07:56:32.614Z,19.80
2019-05-17T07:57:32.600Z,19.84
2019-05-17T07:58:32.575Z,19.79
2019-05-17T07:59:32.562Z,19.84
2019-05-17T08:00:32.555Z,19.84
2019-05-17T08:01:32.559Z,19.86
2019-05-17T08:02:32.548Z,19.83
2019-05-17T08:03:32.533Z,19.75
2019-05-17T08:04:32.529Z,19.88
2019-05-17T08:05:32.525Z,19.83
2019-05-17T08:06:32.513Z,19.80
2019-05-17T08:07:32.515Z,19.84
2019-05-17T08:08:32.508Z,19.84
2019-05-17T08:09:32.513Z,19.90
2019-05-17T08:10:32.492Z,19.80
2019-05-17T08:11:32.487Z,19.86
2019-05-17T08:12:32.472Z,19.79
2019-05-17T08:13:33.814Z,19.83
2019-05-17T08:14:33.551Z,19.84
2019-05-17T08:15:32.464Z,19.83
2019-05-17T08:16:32.456Z,19.80
2019-05-17T08:17:32.438Z,19.79
2019-05-17T08:18:32.432Z,19.80
2019-05-17T08:19:32.434Z,19.86
2019-05-17T08:20:32.434Z,19.83
2019-05-17T08:21:32.443Z,19.78
2019-05-17T08:22:32.419Z,19.80
2019-05-17T08:23:32.403Z,19.75
2019-05-17T08:24:32.395Z,19.79
2019-05-17T08:25:32.388Z,19.79
2019-05-17T08:26:32.387Z,19.83
2019-05-17T08:27:32.387Z,19.88
2019-05-17T08:28:32.377Z,19.84
2019-05-17T08:29:32.369Z,20.00
2019-05-17T08:30:32.366Z,19.87
2019-05-17T08:31:32.362Z,19.84
2019-05-17T08:32:32.346Z,19.84
2019-05-17T08:33:32.343Z,19.90
2019-05-17T08:34:32.345Z,19.88
2019-05-17T08:35:32.321Z,19.88
2019-05-17T08:36:32.321Z,19.84
2019-05-17T08:37:32.308Z,19.91
2019-05-17T08:38:32.299Z,19.84
2019-05-17T08:39:32.309Z,19.84
2019-05-17T08:40:32.310Z,19.83
2019-05-17T08:41:32.303Z,19.91
2019-05-17T08:42:32.280Z,19.88
2019-05-17T08:43:43.129Z,19.84
2019-05-17T08:44:32.270Z,19.91
2019-05-17T08:45:32.260Z,19.97
2019-05-17T08:46:32.255Z,19.98
2019-05-17T08:47:32.255Z,19.93
2019-05-17T08:48:32.259Z,20.00
2019-05-17T08:49:32.235Z,19.93
2019-05-17T08:50:32.257Z,19.93
2019-05-17T08:51:32.241Z,19.95
2019-05-17T08:52:32.221Z,19.88
2019-05-17T08:53:32.211Z,19.84
2019-05-17T08:54:32.210Z,19.84
2019-05-17T08:55:32.195Z,19.86
2019-05-17T08:56:32.197Z,19.76
2019-05-17T08:57:32.187Z,19.84
2019-05-17T08:58:32.175Z,19.83
2019-05-17T08:59:32.181Z,19.79
2019-05-17T09:00:32.174Z,19.86
2019-05-17T09:01:32.173Z,19.75
2019-05-17T09:02:32.170Z,19.83
2019-05-17T09:03:32.146Z,19.84
2019-05-17T09:04:32.137Z,19.79
2019-05-17T09:05:32.137Z,19.79
2019-05-17T09:06:32.134Z,19.84
2019-05-17T09:07:32.123Z,19.75
2019-05-17T09:08:32.117Z,19.78
2019-05-17T09:09:32.121Z,19.76
2019-05-17T09:10:32.131Z,19.75
2019-05-17T09:11:32.096Z,19.75
2019-05-17T09:12:32.145Z,19.83
2019-05-17T09:13:32.098Z,19.79
2019-05-17T09:14:32.078Z,19.87
2019-05-17T09:15:32.080Z,19.80
2019-05-17T09:16:32.062Z,19.80
2019-05-17T09:17:32.063Z,19.78
2019-05-17T09:18:32.066Z,19.80
2019-05-17T09:19:32.073Z,19.87
2019-05-17T09:20:32.043Z,19.84
2019-05-17T09:21:32.030Z,19.91
2019-05-17T09:22:32.026Z,19.94
2019-05-17T09:23:32.019Z,19.87
2019-05-17T09:24:32.020Z,19.98
2019-05-17T09:25:32.014Z,19.90
2019-05-17T09:26:32.006Z,19.87
2019-05-17T09:27:31.993Z,19.84
2019-05-17T09:28:31.986Z,19.88
2019-05-17T09:29:31.975Z,19.87
2019-05-17T09:30:31.971Z,19.86
2019-05-17T09:31:31.967Z,19.86
2019-05-17T09:32:31.961Z,19.86
2019-05-17T09:33:31.955Z,19.90
2019-05-17T09:34:31.952Z,19.88
2019-05-17T09:35:31.935Z,19.84
2019-05-17T09:36:31.934Z,19.87
2019-05-17T09:37:31.935Z,19.90
2019-05-17T09:38:31.926Z,19.87
2019-05-17T09:39:31.918Z,19.94
2019-05-17T09:40:31.909Z,19.86
2019-05-17T09:41:31.918Z,19.87
2019-05-17T09:42:31.894Z,19.93
2019-05-17T09:43:31.908Z,19.98
2019-05-17T09:44:31.899Z,19.93
2019-05-17T09:45:31.891Z,19.94
2019-05-17T09:46:31.888Z,20.00
2019-05-17T09:47:31.866Z,19.95
2019-05-17T09:48:31.862Z,19.94
2019-05-17T09:49:31.870Z,19.94
2019-05-17T09:50:31.855Z,19.98
2019-05-17T09:51:31.844Z,19.98
2019-05-17T09:52:31.847Z,19.90
2019-05-17T09:53:31.829Z,19.87
2019-05-17T09:54:41.346Z,19.86
2019-05-17T09:55:31.822Z,19.95
2019-05-17T09:56:31.829Z,19.86
2019-05-17T09:57:31.812Z,19.90
2019-05-17T09:58:31.809Z,19.90
2019-05-17T09:59:31.791Z,19.87
2019-05-17T10:00:31.787Z,19.83
2019-05-17T10:01:31.781Z,19.83
2019-05-17T10:02:31.775Z,19.86
2019-05-17T10:03:31.778Z,19.84
2019-05-17T10:04:31.768Z,19.88
2019-05-17T10:05:31.767Z,19.88
2019-05-17T10:06:31.752Z,19.88
2019-05-17T10:07:31.749Z,19.93
2019-05-17T10:08:31.736Z,19.97
2019-05-17T10:09:31.736Z,19.97
2019-05-17T10:10:31.730Z,19.93
2019-05-17T10:11:31.726Z,19.97
2019-05-17T10:12:31.721Z,19.98
2019-05-17T10:13:31.715Z,19.94
2019-05-17T10:14:31.702Z,19.97
2019-05-17T10:15:31.699Z,20.08
2019-05-17T10:16:31.696Z,20.08
2019-05-17T10:17:31.691Z,19.98
2019-05-17T10:18:31.685Z,20.08
2019-05-17T10:19:31.672Z,19.98
2019-05-17T10:20:31.664Z,20.06
2019-05-17T10:21:31.661Z,20.12
2019-05-17T10:22:31.651Z,20.15
2019-05-17T10:23:31.657Z,20.21
2019-05-17T10:24:38.082Z,20.15
2019-05-17T10:25:31.663Z,20.23
2019-05-17T10:26:31.627Z,20.20
2019-05-17T10:27:31.653Z,20.21
2019-05-17T10:28:31.623Z,20.23
2019-05-17T10:29:31.615Z,20.24
2019-05-17T10:30:31.609Z,20.34
2019-05-17T10:31:31.599Z,20.28
2019-05-17T10:32:31.596Z,20.30
2019-05-17T10:33:31.593Z,20.30
2019-05-17T10:34:31.587Z,20.24
2019-05-17T10:35:31.581Z,20.27
2019-05-17T10:36:31.574Z,20.27
2019-05-17T10:37:31.838Z,20.30
2019-05-17T10:38:31.561Z,20.34
2019-05-17T10:39:31.558Z,20.30
2019-05-17T10:40:31.558Z,20.28
2019-05-17T10:41:31.542Z,20.28
2019-05-17T10:42:31.537Z,20.24
2019-05-17T10:43:31.536Z,20.34
2019-05-17T10:44:43.123Z,20.30
2019-05-17T10:45:31.538Z,20.31
2019-05-17T10:46:31.578Z,20.38
2019-05-17T10:47:31.518Z,20.41
2019-05-17T10:48:31.516Z,20.38
2019-05-17T10:49:31.508Z,20.34
2019-05-17T10:50:31.491Z,20.33
2019-05-17T10:51:31.489Z,20.38
2019-05-17T10:52:31.508Z,20.46
2019-05-17T10:53:31.494Z,20.41
2019-05-17T10:54:31.477Z,20.51
2019-05-17T10:55:31.469Z,20.39
2019-05-17T10:56:31.456Z,20.53
2019-05-17T10:57:31.465Z,20.51
2019-05-17T10:58:31.454Z,20.54
2019-05-17T10:59:31.453Z,20.43
2019-05-17T11:00:31.448Z,20.50
2019-05-17T11:01:31.434Z,20.54
2019-05-17T11:02:31.430Z,20.47
2019-05-17T11:03:31.426Z,20.46
2019-05-17T11:04:31.420Z,20.50
2019-05-17T11:05:31.416Z,20.49
2019-05-17T11:06:31.411Z,20.51
2019-05-17T11:07:31.396Z,20.42
2019-05-17T11:08:31.398Z,20.46
2019-05-17T11:09:31.512Z,20.49
2019-05-17T11:10:31.396Z,20.47
2019-05-17T11:11:31.406Z,20.51
2019-05-17T11:12:31.382Z,20.54
2019-05-17T11:13:31.371Z,20.59
2019-05-17T11:14:31.363Z,20.56
2019-05-17T11:15:31.356Z,20.58
2019-05-17T11:16:31.359Z,20.61
2019-05-17T11:17:31.348Z,20.58
2019-05-17T11:18:31.346Z,20.56
2019-05-17T11:19:31.328Z,20.53
2019-05-17T11:20:31.326Z,20.51
2019-05-17T11:21:31.322Z,20.50
2019-05-17T11:22:31.329Z,20.54
2019-05-17T11:23:31.324Z,20.51
2019-05-17T11:24:31.358Z,20.38
2019-05-17T11:25:31.327Z,20.09
2019-05-17T11:26:31.305Z,20.08
2019-05-17T11:27:31.293Z,19.97
2019-05-17T11:28:31.283Z,19.98
2019-05-17T11:29:31.295Z,19.93
2019-05-17T11:30:31.287Z,19.91
2019-05-17T11:31:31.271Z,19.83
2019-05-17T11:32:31.263Z,19.75
2019-05-17T11:33:31.275Z,19.90
2019-05-17T11:34:31.259Z,19.88
2019-05-17T11:35:31.276Z,19.84
2019-05-17T11:36:31.260Z,19.73
2019-05-17T11:37:31.274Z,19.80
2019-05-17T11:38:31.253Z,19.76
2019-05-17T11:39:31.227Z,19.76
2019-05-17T11:40:31.230Z,19.72
2019-05-17T11:41:31.226Z,19.70
2019-05-17T11:42:31.213Z,19.68
2019-05-17T11:43:31.211Z,19.66
2019-05-17T11:44:31.207Z,19.72
2019-05-17T11:45:32.797Z,19.68
2019-05-17T11:46:36.288Z,19.58
2019-05-17T11:47:31.192Z,19.61
2019-05-17T11:48:31.187Z,19.57
2019-05-17T11:49:31.186Z,19.60
2019-05-17T11:50:31.192Z,19.54
2019-05-17T11:51:31.170Z,19.66
2019-05-17T11:52:31.166Z,19.63
2019-05-17T11:53:31.153Z,19.63
2019-05-17T11:54:31.145Z,19.75
2019-05-17T11:55:31.160Z,20.02
2019-05-17T11:56:31.159Z,19.97
2019-05-17T11:57:31.145Z,19.91
2019-05-17T11:58:31.137Z,20.06
2019-05-17T11:59:31.125Z,20.08
2019-05-17T12:00:31.114Z,20.13
2019-05-17T12:01:31.123Z,20.05
2019-05-17T12:02:31.109Z,20.16
2019-05-17T12:03:31.097Z,20.20
2019-05-17T12:04:31.093Z,20.27
2019-05-17T12:05:31.097Z,20.23
2019-05-17T12:06:31.098Z,20.28
2019-05-17T12:07:31.084Z,20.27
2019-05-17T12:08:31.110Z,20.23
2019-05-17T12:09:37.481Z,20.27
2019-05-17T12:10:31.085Z,20.25
2019-05-17T12:11:31.049Z,20.30
2019-05-17T12:12:31.046Z,20.28
2019-05-17T12:13:31.038Z,20.34
2019-05-17T12:14:31.069Z,20.35
2019-05-17T12:15:44.577Z,20.46
2019-05-17T12:16:31.033Z,20.39
2019-05-17T12:17:31.022Z,20.46
2019-05-17T12:18:31.052Z,20.41
2019-05-17T12:19:31.011Z,20.51
2019-05-17T12:20:31.011Z,20.54
2019-05-17T12:21:31.000Z,20.54
2019-05-17T12:22:30.995Z,20.54
2019-05-17T12:23:30.985Z,20.58
2019-05-17T12:24:31.165Z,20.54
2019-05-17T12:25:30.974Z,20.61
2019-05-17T12:26:30.968Z,20.64
2019-05-17T12:27:30.967Z,20.65
2019-05-17T12:28:30.962Z,20.69
2019-05-17T12:29:31.023Z,20.72
2019-05-17T12:30:30.954Z,20.58
2019-05-17T12:31:30.944Z,20.65
2019-05-17T12:32:30.938Z,20.65
2019-05-17T12:33:30.971Z,20.66
2019-05-17T12:34:30.936Z,20.72
2019-05-17T12:35:30.929Z,20.66
2019-05-17T12:36:30.919Z,20.49
2019-05-17T12:37:30.920Z,20.51
2019-05-17T12:38:30.909Z,20.35
2019-05-17T12:39:30.909Z,20.34
2019-05-17T12:40:30.916Z,20.25
2019-05-17T12:41:30.909Z,20.35
2019-05-17T12:42:30.895Z,20.56
2019-05-17T12:43:30.887Z,20.69
2019-05-17T12:44:30.880Z,20.76
2019-05-17T12:45:30.877Z,20.76
2019-05-17T12:46:30.873Z,20.79
2019-05-17T12:47:30.952Z,20.84
2019-05-17T12:48:30.869Z,20.74
2019-05-17T12:49:30.864Z,20.80
2019-05-17T12:50:30.851Z,20.71
2019-05-17T12:51:32.886Z,20.68
2019-05-17T12:52:30.850Z,20.71